Drobaksund III — LKJO — position and weather

sailwx.info

Track history (hours):
 
Tides and Currents Weather Stations Pressure Air Temp Water Temp Dewpoint Dewpoint Depression Visibility Wind Speed Wind Dir Waves Ship Positions

Drobaksund III

Last reported at 2014-Aug-01 01:33 UTC. Time now 2014-Aug-01 01:53 UTC.
Position N 58°27' E 005°59'.

Length 57 m; draft 3 m.

Type: Ship (hazmat cat A). MMSI: 257235400.

Date/timePositionNaut miles runAvg speedWind from/ knotsBaromVisibWave heightAir tempDewpointWater temp
2014-Aug-01 01:33N 58°27' E 005°59'0 0.0
2014-Aug-01 00:33N 58°27' E 005°59'0 0.0
2014-Jul-31 23:33N 58°27' E 005°59'0 0.0
2014-Jul-31 22:33N 58°27' E 005°59'0 0.0
2014-Jul-31 21:33N 58°27' E 005°59'0 0.0
2014-Jul-31 20:33N 58°27' E 005°59'0 0.0
2014-Jul-31 19:33N 58°27' E 005°59'0 0.0
2014-Jul-31 18:33N 58°27' E 005°59'0 0.0
2014-Jul-31 17:33N 58°27' E 005°59'0 0.0
2014-Jul-31 16:33N 58°27' E 005°59'0 0.0
2014-Jul-31 15:33N 58°27' E 005°59'0 0.0
2014-Jul-31 14:33N 58°27' E 005°59'0 0.0
2014-Jul-31 13:33N 58°27' E 005°59'0 0.0
2014-Jul-31 12:33N 58°27' E 005°59'0 0.0
2014-Jul-31 11:33N 58°27' E 005°59'0 0.0
2014-Jul-31 10:33N 58°27' E 005°59'0 0.0
2014-Jul-31 09:33N 58°27' E 005°59'0 0.0
2014-Jul-31 08:33N 58°27' E 005°59'0 0.0
2014-Jul-31 07:33N 58°27' E 005°59'0 0.1
2014-Jul-31 06:33N 58°27' E 005°59'0 0.0
2014-Jul-31 05:33N 58°27' E 005°59'0 0.0
2014-Jul-31 04:33N 58°27' E 005°59'0 0.0
2014-Jul-31 03:33N 58°27' E 005°59'0 0.0
2014-Jul-31 02:33N 58°27' E 005°59'0 0.0
2014-Jul-31 01:33N 58°27' E 005°59'0 0.0
2014-Jul-31 00:33N 58°27' E 005°59'0 0.0
2014-Jul-30 23:33N 58°27' E 005°59'0 0.0
2014-Jul-30 22:33N 58°27' E 005°59'0 0.0
2014-Jul-30 21:33N 58°27' E 005°59'0 0.0
2014-Jul-30 20:33N 58°27' E 005°59'0 0.0
2014-Jul-30 19:33N 58°27' E 005°59'0 0.0
2014-Jul-30 18:33N 58°27' E 005°59'2 2.1
2014-Jul-30 17:33N 58°25' E 005°60'6 5.7
2014-Jul-30 16:33N 58°19' E 006°04'5 4.6
2014-Jul-30 15:33N 58°15' E 006°08'2 1.6
2014-Jul-30 14:33N 58°15' E 006°11'4 4.4
2014-Jul-30 13:33N 58°12' E 006°17'7 7.4
2014-Jul-30 12:33N 58°07' E 006°28'61 7.3
2014-Jul-30 04:11N 58°07' E 008°24'6 9.2
2014-Jul-30 03:33N 58°11' E 008°33'9 9.1
2014-Jul-30 02:33N 58°17' E 008°45'27 8.9
2014-Jul-29 23:33N 58°36' E 009°20'8 8.4
2014-Jul-29 22:32N 58°42' E 009°31'8 8.2
2014-Jul-29 21:33N 58°47' E 009°44'8 8.0
2014-Jul-29 20:32N 58°51' E 009°57'8 8.0
2014-Jul-29 19:33N 58°55' E 010°11'8 7.8
2014-Jul-29 18:33N 58°59' E 010°23'8 8.0
2014-Jul-29 17:33N 59°06' E 010°32'7 7.4
2014-Jul-29 16:33N 59°13' E 010°36'8 7.8
2014-Jul-29 15:33N 59°21' E 010°31'6 5.6
2014-Jul-29 14:33N 59°26' E 010°29'0 0.2
2014-Jul-29 12:29N 59°26' E 010°29'0 0.0
2014-Jul-29 11:33N 59°26' E 010°29'0 0.0
2014-Jul-29 06:33N 59°26' E 010°29'0 0.0
2014-Jul-29 05:04N 59°26' E 010°29'0 0.0
2014-Jul-29 04:32N 59°26' E 010°29'0 0.0
2014-Jul-29 03:32N 59°26' E 010°29'0 0.0
2014-Jul-29 01:10N 59°26' E 010°29'0 0.0
2014-Jul-29 00:16N 59°26' E 010°29'0 0.0
2014-Jul-28 23:17N 59°26' E 010°29'0 0.0
2014-Jul-28 22:30N 59°26' E 010°29'0 0.0
2014-Jul-28 21:30N 59°26' E 010°29'0 0.0
2014-Jul-28 20:31N 59°26' E 010°29'0 0.0
2014-Jul-28 18:15N 59°26' E 010°29'0 0.0
2014-Jul-28 17:03N 59°26' E 010°29'0 0.0
2014-Jul-28 16:16N 59°26' E 010°29'0 0.0
2014-Jul-28 15:28N 59°26' E 010°29'0 0.0
2014-Jul-28 13:06N 59°26' E 010°29'0 0.0
2014-Jul-28 11:13N 59°26' E 010°29'0 0.0
2014-Jul-28 10:32N 59°26' E 010°29'0 0.0
2014-Jul-28 09:29N 59°26' E 010°29'0 0.0
2014-Jul-28 08:21N 59°26' E 010°29'0 0.0
2014-Jul-28 07:26N 59°26' E 010°29'0 0.0
2014-Jul-28 06:12N 59°26' E 010°29'0 0.0
2014-Jul-28 05:33N 59°26' E 010°29'0 0.0
2014-Jul-28 03:19N 59°26' E 010°29'0 0.0
2014-Jul-28 02:17N 59°26' E 010°29'0 0.0
2014-Jul-28 01:30N 59°26' E 010°29'0 0.0
2014-Jul-28 00:30N 59°26' E 010°29'0 0.0
2014-Jul-27 23:31N 59°26' E 010°29'0 0.0
2014-Jul-27 22:32N 59°26' E 010°29'0 0.0
2014-Jul-27 21:32N 59°26' E 010°29'0 0.0
2014-Jul-27 20:30N 59°26' E 010°29'0 0.0
2014-Jul-27 19:28N 59°26' E 010°29'0 0.0
2014-Jul-27 18:31N 59°26' E 010°29'0 0.0
2014-Jul-27 17:23N 59°26' E 010°29'0 0.0
2014-Jul-27 16:30N 59°26' E 010°29'0 0.0
2014-Jul-27 15:27N 59°26' E 010°29'0 0.0
2014-Jul-27 14:31N 59°26' E 010°29'0 0.0
2014-Jul-27 13:32N 59°26' E 010°29'0 0.0
2014-Jul-27 12:32N 59°26' E 010°29'0 0.0
2014-Jul-27 11:33N 59°26' E 010°29'0 0.0
2014-Jul-27 10:28N 59°26' E 010°29'0 0.0
2014-Jul-27 09:31N 59°26' E 010°29'0 0.0
2014-Jul-27 08:23N 59°26' E 010°29'0 0.0
2014-Jul-27 07:27N 59°26' E 010°29'0 0.0
2014-Jul-27 06:30N 59°26' E 010°29'0 0.0
2014-Jul-27 05:31N 59°26' E 010°29'0 0.0
2014-Jul-27 04:32N 59°26' E 010°29'0 0.0
2014-Jul-27 03:32N 59°26' E 010°29'0 0.0
2014-Jul-27 02:33N 59°26' E 010°29'0 0.0
2014-Jul-27 01:28N 59°26' E 010°29'0 0.0
2014-Jul-27 00:28N 59°26' E 010°29'0 0.0
2014-Jul-26 23:29N 59°26' E 010°29'0 0.0
2014-Jul-26 22:33N 59°26' E 010°29'0 0.0
2014-Jul-26 21:27N 59°26' E 010°29'0 0.0
2014-Jul-26 20:31N 59°26' E 010°29'0 0.0
2014-Jul-26 19:32N 59°26' E 010°29'0 0.0
2014-Jul-26 18:32N 59°26' E 010°29'0 0.0
2014-Jul-26 17:33N 59°26' E 010°29'0 0.0
2014-Jul-26 16:31N 59°26' E 010°29'0 0.0
2014-Jul-26 15:31N 59°26' E 010°29'0 0.0
2014-Jul-26 14:29N 59°26' E 010°29'0 0.0
2014-Jul-26 13:30N 59°26' E 010°29'0 0.0
2014-Jul-26 12:30N 59°26' E 010°29'0 0.0
2014-Jul-26 11:28N 59°26' E 010°29'0 0.0
2014-Jul-26 10:32N 59°26' E 010°29'0 0.0
2014-Jul-26 09:32N 59°26' E 010°29'0 0.0
2014-Jul-26 08:33N 59°26' E 010°29'0 0.0
2014-Jul-26 07:28N 59°26' E 010°29'0 0.0
2014-Jul-26 06:28N 59°26' E 010°29'0 0.0
2014-Jul-26 05:29N 59°26' E 010°29'0 0.0
2014-Jul-26 04:33N 59°26' E 010°29'0 0.0
2014-Jul-26 03:33N 59°26' E 010°29'0 0.0
2014-Jul-26 02:28N 59°26' E 010°29'0 0.0
2014-Jul-26 01:32N 59°26' E 010°29'0 0.0
2014-Jul-26 00:32N 59°26' E 010°29'0 0.0
2014-Jul-25 23:33N 59°26' E 010°29'0 0.0
2014-Jul-25 22:31N 59°26' E 010°29'0 0.0
2014-Jul-25 21:28N 59°26' E 010°29'0 0.0
2014-Jul-25 20:32N 59°26' E 010°29'0 0.0
2014-Jul-25 19:33N 59°26' E 010°29'0 0.0
2014-Jul-25 18:30N 59°26' E 010°29'0 0.0
2014-Jul-25 17:28N 59°26' E 010°29'0 0.0
2014-Jul-25 16:32N 59°26' E 010°29'0 0.0
2014-Jul-25 15:32N 59°26' E 010°29'0 0.0
2014-Jul-25 14:30N 59°26' E 010°29'0 0.0
2014-Jul-25 13:31N 59°26' E 010°29'0 0.4
2014-Jul-25 12:33N 59°26' E 010°29'2 1.7
2014-Jul-25 11:25N 59°28' E 010°28'2 2.6
2014-Jul-25 10:33N 59°26' E 010°29'0 0.0
2014-Jul-25 09:31N 59°26' E 010°29'0 0.0
2014-Jul-25 08:31N 59°26' E 010°29'0 0.0
2014-Jul-25 07:32N 59°26' E 010°29'0 0.0
2014-Jul-25 06:33N 59°26' E 010°29'0 0.0
2014-Jul-25 05:27N 59°26' E 010°29'0 0.0
2014-Jul-25 04:31N 59°26' E 010°29'0 0.0
2014-Jul-25 03:32N 59°26' E 010°29'0 0.0
2014-Jul-25 02:32N 59°26' E 010°29'0 0.0
2014-Jul-25 01:33N 59°26' E 010°29'0 0.0
2014-Jul-25 00:25N 59°26' E 010°29'0 0.0
2014-Jul-24 23:28N 59°26' E 010°29'0 0.0
2014-Jul-24 22:32N 59°26' E 010°29'0 0.0
2014-Jul-24 21:27N 59°26' E 010°29'0 0.0
2014-Jul-24 20:33N 59°26' E 010°29'0 0.0
2014-Jul-24 19:31N 59°26' E 010°29'0 0.0
2014-Jul-24 18:32N 59°26' E 010°29'0 0.0
2014-Jul-24 17:32N 59°26' E 010°29'0 0.0
2014-Jul-24 16:33N 59°26' E 010°29'0 0.0
2014-Jul-24 15:31N 59°26' E 010°29'0 0.0
2014-Jul-24 14:31N 59°26' E 010°29'0 0.0
2014-Jul-24 13:32N 59°26' E 010°29'0 0.0
2014-Jul-24 12:33N 59°26' E 010°29'0 0.0
2014-Jul-24 11:33N 59°26' E 010°29'0 0.0
2014-Jul-24 10:30N 59°26' E 010°29'0 0.0
2014-Jul-24 09:18N 59°26' E 010°29'0 0.0
2014-Jul-24 08:25N 59°26' E 010°29'0 0.0
2014-Jul-24 07:32N 59°26' E 010°29'0 0.0
2014-Jul-24 06:32N 59°26' E 010°29'0 0.0
2014-Jul-24 05:33N 59°26' E 010°29'0 0.0
2014-Jul-24 03:19N 59°26' E 010°29'0 0.0
2014-Jul-24 02:32N 59°26' E 010°29'0 0.0
2014-Jul-24 01:33N 59°26' E 010°29'0 0.0
2014-Jul-24 00:33N 59°26' E 010°29'0 0.0
2014-Jul-23 23:31N 59°26' E 010°29'0 0.0
2014-Jul-23 22:32N 59°26' E 010°29'0 0.0
2014-Jul-23 21:32N 59°26' E 010°29'0 0.0
2014-Jul-23 20:33N 59°26' E 010°29'0 0.0
2014-Jul-23 19:31N 59°26' E 010°29'0 0.0
2014-Jul-23 18:31N 59°26' E 010°29'0 0.0
2014-Jul-23 17:29N 59°26' E 010°29'0 0.0
2014-Jul-23 16:06N 59°26' E 010°29'0 0.0
2014-Jul-23 14:07N 59°26' E 010°29'0 0.0
2014-Jul-23 13:32N 59°26' E 010°29'0 0.0
2014-Jul-23 12:32N 59°26' E 010°29'0 0.0
2014-Jul-23 11:33N 59°26' E 010°29'0 0.0
2014-Jul-23 10:28N 59°26' E 010°29'0 0.0
2014-Jul-23 09:08N 59°26' E 010°29'0 0.0
2014-Jul-23 08:23N 59°26' E 010°29'0 0.0
2014-Jul-23 07:21N 59°26' E 010°29'0 0.0
2014-Jul-23 06:30N 59°26' E 010°29'0 0.0
2014-Jul-23 05:28N 59°26' E 010°29'0 0.0
2014-Jul-23 04:26N 59°26' E 010°29'0 0.0
2014-Jul-23 03:14N 59°26' E 010°29'0 0.0
2014-Jul-23 02:33N 59°26' E 010°29'0 0.0
2014-Jul-23 01:28N 59°26' E 010°29'0 0.0
2014-Jul-23 00:31N 59°26' E 010°29'0 0.0
2014-Jul-22 23:29N 59°26' E 010°29'0 0.0
2014-Jul-22 22:33N 59°26' E 010°29'0 0.0
2014-Jul-22 21:24N 59°26' E 010°29'0 0.0
2014-Jul-22 20:28N 59°26' E 010°29'0 0.0
2014-Jul-22 19:14N 59°26' E 010°29'0 0.0
2014-Jul-22 18:20N 59°26' E 010°29'0 0.0
2014-Jul-22 17:33N 59°26' E 010°29'0 0.0
2014-Jul-22 16:28N 59°26' E 010°29'0 0.0
2014-Jul-22 15:31N 59°26' E 010°29'0 0.0
2014-Jul-22 14:17N 59°26' E 010°29'0 0.0
2014-Jul-22 12:21N 59°26' E 010°29'0 0.0
2014-Jul-22 10:17N 59°26' E 010°29'0 0.0
2014-Jul-22 09:24N 59°26' E 010°29'0 0.0
2014-Jul-22 08:33N 59°26' E 010°29'0 0.0
2014-Jul-22 05:23N 59°26' E 010°29'0 0.0
2014-Jul-22 04:27N 59°26' E 010°29'0 0.0
2014-Jul-22 03:07N 59°26' E 010°29'0 0.0
2014-Jul-22 02:16N 59°26' E 010°29'  
Track history (hours):
 
Tides and Currents Weather Stations Pressure Air Temp Water Temp Dewpoint Dewpoint Depression Visibility Wind Speed Wind Dir Waves Ship Positions

Drobaksund III

Last reported at 2014-Aug-01 01:33 UTC. Time now 2014-Aug-01 01:53 UTC.
Position N 58°27' E 005°59'.

Length 57 m; draft 3 m.

Type: Ship (hazmat cat A). MMSI: 257235400.

Date/timePositionNaut miles runAvg speedWind from/ knotsBaromVisibWave heightAir tempDewpointWater temp
2014-Aug-01 01:33N 58°27' E 005°59'0 0.0
2014-Aug-01 00:33N 58°27' E 005°59'0 0.0
2014-Jul-31 23:33N 58°27' E 005°59'0 0.0
2014-Jul-31 22:33N 58°27' E 005°59'0 0.0
2014-Jul-31 21:33N 58°27' E 005°59'0 0.0
2014-Jul-31 20:33N 58°27' E 005°59'0 0.0
2014-Jul-31 19:33N 58°27' E 005°59'0 0.0
2014-Jul-31 18:33N 58°27' E 005°59'0 0.0
2014-Jul-31 17:33N 58°27' E 005°59'0 0.0
2014-Jul-31 16:33N 58°27' E 005°59'0 0.0
2014-Jul-31 15:33N 58°27' E 005°59'0 0.0
2014-Jul-31 14:33N 58°27' E 005°59'0 0.0
2014-Jul-31 13:33N 58°27' E 005°59'0 0.0
2014-Jul-31 12:33N 58°27' E 005°59'0 0.0
2014-Jul-31 11:33N 58°27' E 005°59'0 0.0
2014-Jul-31 10:33N 58°27' E 005°59'0 0.0
2014-Jul-31 09:33N 58°27' E 005°59'0 0.0
2014-Jul-31 08:33N 58°27' E 005°59'0 0.0
2014-Jul-31 07:33N 58°27' E 005°59'0 0.1
2014-Jul-31 06:33N 58°27' E 005°59'0 0.0
2014-Jul-31 05:33N 58°27' E 005°59'0 0.0
2014-Jul-31 04:33N 58°27' E 005°59'0 0.0
2014-Jul-31 03:33N 58°27' E 005°59'0 0.0
2014-Jul-31 02:33N 58°27' E 005°59'0 0.0
2014-Jul-31 01:33N 58°27' E 005°59'0 0.0
2014-Jul-31 00:33N 58°27' E 005°59'0 0.0
2014-Jul-30 23:33N 58°27' E 005°59'0 0.0
2014-Jul-30 22:33N 58°27' E 005°59'0 0.0
2014-Jul-30 21:33N 58°27' E 005°59'0 0.0
2014-Jul-30 20:33N 58°27' E 005°59'0 0.0
2014-Jul-30 19:33N 58°27' E 005°59'0 0.0
2014-Jul-30 18:33N 58°27' E 005°59'2 2.1
2014-Jul-30 17:33N 58°25' E 005°60'6 5.7
2014-Jul-30 16:33N 58°19' E 006°04'5 4.6
2014-Jul-30 15:33N 58°15' E 006°08'2 1.6
2014-Jul-30 14:33N 58°15' E 006°11'4 4.4
2014-Jul-30 13:33N 58°12' E 006°17'7 7.4
2014-Jul-30 12:33N 58°07' E 006°28'61 7.3
2014-Jul-30 04:11N 58°07' E 008°24'6 9.2
2014-Jul-30 03:33N 58°11' E 008°33'9 9.1
2014-Jul-30 02:33N 58°17' E 008°45'27 8.9
2014-Jul-29 23:33N 58°36' E 009°20'8 8.4
2014-Jul-29 22:32N 58°42' E 009°31'8 8.2
2014-Jul-29 21:33N 58°47' E 009°44'8 8.0
2014-Jul-29 20:32N 58°51' E 009°57'8 8.0
2014-Jul-29 19:33N 58°55' E 010°11'8 7.8
2014-Jul-29 18:33N 58°59' E 010°23'8 8.0
2014-Jul-29 17:33N 59°06' E 010°32'7 7.4
2014-Jul-29 16:33N 59°13' E 010°36'8 7.8
2014-Jul-29 15:33N 59°21' E 010°31'6 5.6
2014-Jul-29 14:33N 59°26' E 010°29'0 0.2
2014-Jul-29 12:29N 59°26' E 010°29'0 0.0
2014-Jul-29 11:33N 59°26' E 010°29'0 0.0
2014-Jul-29 06:33N 59°26' E 010°29'0 0.0
2014-Jul-29 05:04N 59°26' E 010°29'0 0.0
2014-Jul-29 04:32N 59°26' E 010°29'0 0.0
2014-Jul-29 03:32N 59°26' E 010°29'0 0.0
2014-Jul-29 01:10N 59°26' E 010°29'0 0.0
2014-Jul-29 00:16N 59°26' E 010°29'0 0.0
2014-Jul-28 23:17N 59°26' E 010°29'0 0.0
2014-Jul-28 22:30N 59°26' E 010°29'0 0.0
2014-Jul-28 21:30N 59°26' E 010°29'0 0.0
2014-Jul-28 20:31N 59°26' E 010°29'0 0.0
2014-Jul-28 18:15N 59°26' E 010°29'0 0.0
2014-Jul-28 17:03N 59°26' E 010°29'0 0.0
2014-Jul-28 16:16N 59°26' E 010°29'0 0.0
2014-Jul-28 15:28N 59°26' E 010°29'0 0.0
2014-Jul-28 13:06N 59°26' E 010°29'0 0.0
2014-Jul-28 11:13N 59°26' E 010°29'0 0.0
2014-Jul-28 10:32N 59°26' E 010°29'0 0.0
2014-Jul-28 09:29N 59°26' E 010°29'0 0.0
2014-Jul-28 08:21N 59°26' E 010°29'0 0.0
2014-Jul-28 07:26N 59°26' E 010°29'0 0.0
2014-Jul-28 06:12N 59°26' E 010°29'0 0.0
2014-Jul-28 05:33N 59°26' E 010°29'0 0.0
2014-Jul-28 03:19N 59°26' E 010°29'0 0.0
2014-Jul-28 02:17N 59°26' E 010°29'0 0.0
2014-Jul-28 01:30N 59°26' E 010°29'0 0.0
2014-Jul-28 00:30N 59°26' E 010°29'0 0.0
2014-Jul-27 23:31N 59°26' E 010°29'0 0.0
2014-Jul-27 22:32N 59°26' E 010°29'0 0.0
2014-Jul-27 21:32N 59°26' E 010°29'0 0.0
2014-Jul-27 20:30N 59°26' E 010°29'0 0.0
2014-Jul-27 19:28N 59°26' E 010°29'0 0.0
2014-Jul-27 18:31N 59°26' E 010°29'0 0.0
2014-Jul-27 17:23N 59°26' E 010°29'0 0.0
2014-Jul-27 16:30N 59°26' E 010°29'0 0.0
2014-Jul-27 15:27N 59°26' E 010°29'0 0.0
2014-Jul-27 14:31N 59°26' E 010°29'0 0.0
2014-Jul-27 13:32N 59°26' E 010°29'0 0.0
2014-Jul-27 12:32N 59°26' E 010°29'0 0.0
2014-Jul-27 11:33N 59°26' E 010°29'0 0.0
2014-Jul-27 10:28N 59°26' E 010°29'0 0.0
2014-Jul-27 09:31N 59°26' E 010°29'0 0.0
2014-Jul-27 08:23N 59°26' E 010°29'0 0.0
2014-Jul-27 07:27N 59°26' E 010°29'0 0.0
2014-Jul-27 06:30N 59°26' E 010°29'0 0.0
2014-Jul-27 05:31N 59°26' E 010°29'0 0.0
2014-Jul-27 04:32N 59°26' E 010°29'0 0.0
2014-Jul-27 03:32N 59°26' E 010°29'0 0.0
2014-Jul-27 02:33N 59°26' E 010°29'0 0.0
2014-Jul-27 01:28N 59°26' E 010°29'0 0.0
2014-Jul-27 00:28N 59°26' E 010°29'0 0.0
2014-Jul-26 23:29N 59°26' E 010°29'0 0.0
2014-Jul-26 22:33N 59°26' E 010°29'0 0.0
2014-Jul-26 21:27N 59°26' E 010°29'0 0.0
2014-Jul-26 20:31N 59°26' E 010°29'0 0.0
2014-Jul-26 19:32N 59°26' E 010°29'0 0.0
2014-Jul-26 18:32N 59°26' E 010°29'0 0.0
2014-Jul-26 17:33N 59°26' E 010°29'0 0.0
2014-Jul-26 16:31N 59°26' E 010°29'0 0.0
2014-Jul-26 15:31N 59°26' E 010°29'0 0.0
2014-Jul-26 14:29N 59°26' E 010°29'0 0.0
2014-Jul-26 13:30N 59°26' E 010°29'0 0.0
2014-Jul-26 12:30N 59°26' E 010°29'0 0.0
2014-Jul-26 11:28N 59°26' E 010°29'0 0.0
2014-Jul-26 10:32N 59°26' E 010°29'0 0.0
2014-Jul-26 09:32N 59°26' E 010°29'0 0.0
2014-Jul-26 08:33N 59°26' E 010°29'0 0.0
2014-Jul-26 07:28N 59°26' E 010°29'0 0.0
2014-Jul-26 06:28N 59°26' E 010°29'0 0.0
2014-Jul-26 05:29N 59°26' E 010°29'0 0.0
2014-Jul-26 04:33N 59°26' E 010°29'0 0.0
2014-Jul-26 03:33N 59°26' E 010°29'0 0.0
2014-Jul-26 02:28N 59°26' E 010°29'0 0.0
2014-Jul-26 01:32N 59°26' E 010°29'0 0.0
2014-Jul-26 00:32N 59°26' E 010°29'0 0.0
2014-Jul-25 23:33N 59°26' E 010°29'0 0.0
2014-Jul-25 22:31N 59°26' E 010°29'0 0.0
2014-Jul-25 21:28N 59°26' E 010°29'0 0.0
2014-Jul-25 20:32N 59°26' E 010°29'0 0.0
2014-Jul-25 19:33N 59°26' E 010°29'0 0.0
2014-Jul-25 18:30N 59°26' E 010°29'0 0.0
2014-Jul-25 17:28N 59°26' E 010°29'0 0.0
2014-Jul-25 16:32N 59°26' E 010°29'0 0.0
2014-Jul-25 15:32N 59°26' E 010°29'0 0.0
2014-Jul-25 14:30N 59°26' E 010°29'0 0.0
2014-Jul-25 13:31N 59°26' E 010°29'0 0.4
2014-Jul-25 12:33N 59°26' E 010°29'2 1.7
2014-Jul-25 11:25N 59°28' E 010°28'2 2.6
2014-Jul-25 10:33N 59°26' E 010°29'0 0.0
2014-Jul-25 09:31N 59°26' E 010°29'0 0.0
2014-Jul-25 08:31N 59°26' E 010°29'0 0.0
2014-Jul-25 07:32N 59°26' E 010°29'0 0.0
2014-Jul-25 06:33N 59°26' E 010°29'0 0.0
2014-Jul-25 05:27N 59°26' E 010°29'0 0.0
2014-Jul-25 04:31N 59°26' E 010°29'0 0.0
2014-Jul-25 03:32N 59°26' E 010°29'0 0.0
2014-Jul-25 02:32N 59°26' E 010°29'0 0.0
2014-Jul-25 01:33N 59°26' E 010°29'0 0.0
2014-Jul-25 00:25N 59°26' E 010°29'0 0.0
2014-Jul-24 23:28N 59°26' E 010°29'0 0.0
2014-Jul-24 22:32N 59°26' E 010°29'0 0.0
2014-Jul-24 21:27N 59°26' E 010°29'0 0.0
2014-Jul-24 20:33N 59°26' E 010°29'0 0.0
2014-Jul-24 19:31N 59°26' E 010°29'0 0.0
2014-Jul-24 18:32N 59°26' E 010°29'0 0.0
2014-Jul-24 17:32N 59°26' E 010°29'0 0.0
2014-Jul-24 16:33N 59°26' E 010°29'0 0.0
2014-Jul-24 15:31N 59°26' E 010°29'0 0.0
2014-Jul-24 14:31N 59°26' E 010°29'0 0.0
2014-Jul-24 13:32N 59°26' E 010°29'0 0.0
2014-Jul-24 12:33N 59°26' E 010°29'0 0.0
2014-Jul-24 11:33N 59°26' E 010°29'0 0.0
2014-Jul-24 10:30N 59°26' E 010°29'0 0.0
2014-Jul-24 09:18N 59°26' E 010°29'0 0.0
2014-Jul-24 08:25N 59°26' E 010°29'0 0.0
2014-Jul-24 07:32N 59°26' E 010°29'0 0.0
2014-Jul-24 06:32N 59°26' E 010°29'0 0.0
2014-Jul-24 05:33N 59°26' E 010°29'0 0.0
2014-Jul-24 03:19N 59°26' E 010°29'0 0.0
2014-Jul-24 02:32N 59°26' E 010°29'0 0.0
2014-Jul-24 01:33N 59°26' E 010°29'0 0.0
2014-Jul-24 00:33N 59°26' E 010°29'0 0.0
2014-Jul-23 23:31N 59°26' E 010°29'0 0.0
2014-Jul-23 22:32N 59°26' E 010°29'0 0.0
2014-Jul-23 21:32N 59°26' E 010°29'0 0.0
2014-Jul-23 20:33N 59°26' E 010°29'0 0.0
2014-Jul-23 19:31N 59°26' E 010°29'0 0.0
2014-Jul-23 18:31N 59°26' E 010°29'0 0.0
2014-Jul-23 17:29N 59°26' E 010°29'0 0.0
2014-Jul-23 16:06N 59°26' E 010°29'0 0.0
2014-Jul-23 14:07N 59°26' E 010°29'0 0.0
2014-Jul-23 13:32N 59°26' E 010°29'0 0.0
2014-Jul-23 12:32N 59°26' E 010°29'0 0.0
2014-Jul-23 11:33N 59°26' E 010°29'0 0.0
2014-Jul-23 10:28N 59°26' E 010°29'0 0.0
2014-Jul-23 09:08N 59°26' E 010°29'0 0.0
2014-Jul-23 08:23N 59°26' E 010°29'0 0.0
2014-Jul-23 07:21N 59°26' E 010°29'0 0.0
2014-Jul-23 06:30N 59°26' E 010°29'0 0.0
2014-Jul-23 05:28N 59°26' E 010°29'0 0.0
2014-Jul-23 04:26N 59°26' E 010°29'0 0.0
2014-Jul-23 03:14N 59°26' E 010°29'0 0.0
2014-Jul-23 02:33N 59°26' E 010°29'0 0.0
2014-Jul-23 01:28N 59°26' E 010°29'0 0.0
2014-Jul-23 00:31N 59°26' E 010°29'0 0.0
2014-Jul-22 23:29N 59°26' E 010°29'0 0.0
2014-Jul-22 22:33N 59°26' E 010°29'0 0.0
2014-Jul-22 21:24N 59°26' E 010°29'0 0.0
2014-Jul-22 20:28N 59°26' E 010°29'0 0.0
2014-Jul-22 19:14N 59°26' E 010°29'0 0.0
2014-Jul-22 18:20N 59°26' E 010°29'0 0.0
2014-Jul-22 17:33N 59°26' E 010°29'0 0.0
2014-Jul-22 16:28N 59°26' E 010°29'0 0.0
2014-Jul-22 15:31N 59°26' E 010°29'0 0.0
2014-Jul-22 14:17N 59°26' E 010°29'0 0.0
2014-Jul-22 12:21N 59°26' E 010°29'0 0.0
2014-Jul-22 10:17N 59°26' E 010°29'0 0.0
2014-Jul-22 09:24N 59°26' E 010°29'0 0.0
2014-Jul-22 08:33N 59°26' E 010°29'0 0.0
2014-Jul-22 05:23N 59°26' E 010°29'0 0.0
2014-Jul-22 04:27N 59°26' E 010°29'0 0.0
2014-Jul-22 03:07N 59°26' E 010°29'0 0.0
2014-Jul-22 02:16N 59°26' E 010°29'  

Dump ship's entire track history